sensor_id;sensor_type;location;lat;lon;timestamp;P1;durP1;ratioP1;P2;durP2;ratioP2
75154;SDS011;63735;44.730;37.818;2023-05-07T00:00:03;14.07;;;4.88;;
75154;SDS011;63735;44.730;37.818;2023-05-07T00:02:33;17.35;;;4.68;;
75154;SDS011;63735;44.730;37.818;2023-05-07T00:04:59;13.85;;;4.55;;
75154;SDS011;63735;44.730;37.818;2023-05-07T00:09:53;21.80;;;4.95;;
75154;SDS011;63735;44.730;37.818;2023-05-07T00:12:19;17.55;;;3.83;;
75154;SDS011;63735;44.730;37.818;2023-05-07T00:14:45;15.63;;;3.83;;
75154;SDS011;63735;44.730;37.818;2023-05-07T00:17:11;15.82;;;3.53;;
75154;SDS011;63735;44.730;37.818;2023-05-07T00:19:37;19.58;;;4.25;;
75154;SDS011;63735;44.730;37.818;2023-05-07T00:22:03;12.43;;;3.42;;
75154;SDS011;63735;44.730;37.818;2023-05-07T00:24:28;14.88;;;3.65;;
75154;SDS011;63735;44.730;37.818;2023-05-07T00:26:54;13.35;;;3.67;;
75154;SDS011;63735;44.730;37.818;2023-05-07T00:29:20;12.73;;;3.88;;
75154;SDS011;63735;44.730;37.818;2023-05-07T00:31:46;14.48;;;3.55;;
75154;SDS011;63735;44.730;37.818;2023-05-07T00:34:14;7.32;;;3.17;;
75154;SDS011;63735;44.730;37.818;2023-05-07T00:36:40;12.93;;;3.15;;
75154;SDS011;63735;44.730;37.818;2023-05-07T00:39:06;16.63;;;4.05;;
75154;SDS011;63735;44.730;37.818;2023-05-07T00:41:32;9.35;;;3.40;;
75154;SDS011;63735;44.730;37.818;2023-05-07T00:43:58;11.23;;;3.95;;
75154;SDS011;63735;44.730;37.818;2023-05-07T00:46:24;13.18;;;3.80;;
75154;SDS011;63735;44.730;37.818;2023-05-07T00:48:51;9.02;;;3.67;;
75154;SDS011;63735;44.730;37.818;2023-05-07T00:51:17;11.23;;;2.97;;
75154;SDS011;63735;44.730;37.818;2023-05-07T00:53:44;5.78;;;2.80;;
75154;SDS011;63735;44.730;37.818;2023-05-07T00:56:10;15.68;;;3.10;;
75154;SDS011;63735;44.730;37.818;2023-05-07T00:58:37;10.43;;;3.25;;
75154;SDS011;63735;44.730;37.818;2023-05-07T01:01:03;7.90;;;2.75;;
75154;SDS011;63735;44.730;37.818;2023-05-07T01:03:29;6.03;;;2.58;;
75154;SDS011;63735;44.730;37.818;2023-05-07T01:05:55;13.45;;;2.58;;
75154;SDS011;63735;44.730;37.818;2023-05-07T01:08:23;7.22;;;2.55;;
75154;SDS011;63735;44.730;37.818;2023-05-07T01:10:51;5.43;;;2.28;;
75154;SDS011;63735;44.730;37.818;2023-05-07T01:13:19;9.10;;;3.03;;
75154;SDS011;63735;44.730;37.818;2023-05-07T01:15:45;7.55;;;2.47;;
75154;SDS011;63735;44.730;37.818;2023-05-07T01:18:11;7.55;;;2.38;;
75154;SDS011;63735;44.730;37.818;2023-05-07T01:20:38;9.27;;;2.50;;
75154;SDS011;63735;44.730;37.818;2023-05-07T01:23:04;4.25;;;2.83;;
75154;SDS011;63735;44.730;37.818;2023-05-07T01:25:33;12.15;;;3.85;;
75154;SDS011;63735;44.730;37.818;2023-05-07T01:28:00;6.05;;;2.60;;
75154;SDS011;63735;44.730;37.818;2023-05-07T01:30:30;4.80;;;1.80;;
75154;SDS011;63735;44.730;37.818;2023-05-07T01:33:02;10.25;;;2.60;;
75154;SDS011;63735;44.730;37.818;2023-05-07T01:35:37;4.03;;;2.63;;
75154;SDS011;63735;44.730;37.818;2023-05-07T01:38:06;4.32;;;2.03;;
75154;SDS011;63735;44.730;37.818;2023-05-07T01:40:33;7.72;;;2.20;;
75154;SDS011;63735;44.730;37.818;2023-05-07T01:43:02;7.32;;;2.80;;
75154;SDS011;63735;44.730;37.818;2023-05-07T01:45:30;4.53;;;2.70;;
75154;SDS011;63735;44.730;37.818;2023-05-07T01:50:23;6.85;;;2.65;;
75154;SDS011;63735;44.730;37.818;2023-05-07T01:52:50;6.70;;;3.17;;
75154;SDS011;63735;44.730;37.818;2023-05-07T01:55:17;4.82;;;2.80;;
75154;SDS011;63735;44.730;37.818;2023-05-07T01:57:43;4.10;;;2.88;;
75154;SDS011;63735;44.730;37.818;2023-05-07T02:00:10;9.35;;;3.70;;
75154;SDS011;63735;44.730;37.818;2023-05-07T02:02:42;10.55;;;3.97;;
75154;SDS011;63735;44.730;37.818;2023-05-07T02:05:17;7.13;;;4.13;;
75154;SDS011;63735;44.730;37.818;2023-05-07T02:07:48;4.35;;;3.88;;
75154;SDS011;63735;44.730;37.818;2023-05-07T02:10:15;4.40;;;3.63;;
75154;SDS011;63735;44.730;37.818;2023-05-07T02:12:41;7.60;;;3.65;;
75154;SDS011;63735;44.730;37.818;2023-05-07T02:15:08;9.88;;;4.53;;
75154;SDS011;63735;44.730;37.818;2023-05-07T02:17:34;12.40;;;4.50;;
75154;SDS011;63735;44.730;37.818;2023-05-07T02:20:02;5.70;;;3.95;;
75154;SDS011;63735;44.730;37.818;2023-05-07T02:22:29;6.93;;;4.18;;
75154;SDS011;63735;44.730;37.818;2023-05-07T02:24:55;11.57;;;4.70;;
75154;SDS011;63735;44.730;37.818;2023-05-07T02:27:21;11.60;;;4.32;;
75154;SDS011;63735;44.730;37.818;2023-05-07T02:29:47;12.73;;;4.35;;
75154;SDS011;63735;44.730;37.818;2023-05-07T02:32:13;9.43;;;3.80;;
75154;SDS011;63735;44.730;37.818;2023-05-07T02:34:39;4.65;;;3.53;;
75154;SDS011;63735;44.730;37.818;2023-05-07T02:37:05;6.22;;;4.57;;
75154;SDS011;63735;44.730;37.818;2023-05-07T02:39:31;7.45;;;4.45;;
75154;SDS011;63735;44.730;37.818;2023-05-07T02:41:57;6.25;;;3.75;;
75154;SDS011;63735;44.730;37.818;2023-05-07T02:44:23;6.28;;;3.92;;
75154;SDS011;63735;44.730;37.818;2023-05-07T02:46:50;6.70;;;3.67;;
75154;SDS011;63735;44.730;37.818;2023-05-07T02:49:16;5.47;;;3.83;;
75154;SDS011;63735;44.730;37.818;2023-05-07T02:51:43;5.03;;;3.47;;
75154;SDS011;63735;44.730;37.818;2023-05-07T02:54:15;8.57;;;4.70;;
75154;SDS011;63735;44.730;37.818;2023-05-07T02:56:43;5.50;;;4.40;;
75154;SDS011;63735;44.730;37.818;2023-05-07T02:59:08;8.57;;;4.85;;
75154;SDS011;63735;44.730;37.818;2023-05-07T03:01:38;5.97;;;4.32;;
75154;SDS011;63735;44.730;37.818;2023-05-07T03:06:32;9.50;;;5.20;;
75154;SDS011;63735;44.730;37.818;2023-05-07T03:08:58;9.70;;;5.38;;
75154;SDS011;63735;44.730;37.818;2023-05-07T03:11:24;6.57;;;4.85;;
75154;SDS011;63735;44.730;37.818;2023-05-07T03:13:50;6.82;;;6.15;;
75154;SDS011;63735;44.730;37.818;2023-05-07T03:16:18;11.75;;;5.85;;
75154;SDS011;63735;44.730;37.818;2023-05-07T03:18:45;10.02;;;7.97;;
75154;SDS011;63735;44.730;37.818;2023-05-07T03:21:11;9.90;;;7.13;;
75154;SDS011;63735;44.730;37.818;2023-05-07T03:23:37;12.23;;;6.63;;
75154;SDS011;63735;44.730;37.818;2023-05-07T03:26:03;8.73;;;6.10;;
75154;SDS011;63735;44.730;37.818;2023-05-07T03:28:29;12.55;;;7.20;;
75154;SDS011;63735;44.730;37.818;2023-05-07T03:30:59;15.50;;;8.20;;
75154;SDS011;63735;44.730;37.818;2023-05-07T03:33:25;9.30;;;8.40;;
75154;SDS011;63735;44.730;37.818;2023-05-07T03:35:53;16.35;;;8.05;;
75154;SDS011;63735;44.730;37.818;2023-05-07T03:38:23;13.77;;;7.78;;
75154;SDS011;63735;44.730;37.818;2023-05-07T03:40:49;12.15;;;10.02;;
75154;SDS011;63735;44.730;37.818;2023-05-07T03:43:15;10.98;;;7.72;;
75154;SDS011;63735;44.730;37.818;2023-05-07T03:45:46;8.82;;;6.50;;
75154;SDS011;63735;44.730;37.818;2023-05-07T03:48:17;9.23;;;4.80;;
75154;SDS011;63735;44.730;37.818;2023-05-07T03:50:44;8.10;;;5.28;;
75154;SDS011;63735;44.730;37.818;2023-05-07T03:53:10;8.25;;;5.28;;
75154;SDS011;63735;44.730;37.818;2023-05-07T03:55:38;7.10;;;6.22;;
75154;SDS011;63735;44.730;37.818;2023-05-07T03:58:04;8.90;;;7.07;;
75154;SDS011;63735;44.730;37.818;2023-05-07T04:00:31;8.40;;;6.15;;
75154;SDS011;63735;44.730;37.818;2023-05-07T04:03:06;9.77;;;6.65;;
75154;SDS011;63735;44.730;37.818;2023-05-07T04:05:33;10.97;;;7.37;;
75154;SDS011;63735;44.730;37.818;2023-05-07T04:08:01;9.02;;;6.90;;
75154;SDS011;63735;44.730;37.818;2023-05-07T04:10:36;8.65;;;7.03;;
75154;SDS011;63735;44.730;37.818;2023-05-07T04:13:07;10.55;;;6.65;;
75154;SDS011;63735;44.730;37.818;2023-05-07T04:15:34;11.38;;;6.15;;
75154;SDS011;63735;44.730;37.818;2023-05-07T04:18:01;11.45;;;6.60;;
75154;SDS011;63735;44.730;37.818;2023-05-07T04:20:27;7.50;;;5.82;;
75154;SDS011;63735;44.730;37.818;2023-05-07T04:22:59;8.52;;;7.00;;
75154;SDS011;63735;44.730;37.818;2023-05-07T04:25:25;9.35;;;5.65;;
75154;SDS011;63735;44.730;37.818;2023-05-07T04:27:53;11.40;;;5.50;;
75154;SDS011;63735;44.730;37.818;2023-05-07T04:30:21;5.40;;;3.83;;
75154;SDS011;63735;44.730;37.818;2023-05-07T04:32:47;15.75;;;6.43;;
75154;SDS011;63735;44.730;37.818;2023-05-07T04:35:13;13.60;;;5.63;;
75154;SDS011;63735;44.730;37.818;2023-05-07T04:37:40;6.80;;;4.88;;
75154;SDS011;63735;44.730;37.818;2023-05-07T04:40:07;7.85;;;5.50;;
75154;SDS011;63735;44.730;37.818;2023-05-07T04:42:33;7.88;;;6.07;;
75154;SDS011;63735;44.730;37.818;2023-05-07T04:45:01;9.85;;;7.72;;
75154;SDS011;63735;44.730;37.818;2023-05-07T04:47:30;8.43;;;7.30;;
75154;SDS011;63735;44.730;37.818;2023-05-07T04:49:57;13.60;;;7.82;;
75154;SDS011;63735;44.730;37.818;2023-05-07T04:52:23;10.95;;;8.15;;
75154;SDS011;63735;44.730;37.818;2023-05-07T04:54:50;9.93;;;7.70;;
75154;SDS011;63735;44.730;37.818;2023-05-07T04:57:16;12.30;;;7.03;;
75154;SDS011;63735;44.730;37.818;2023-05-07T04:59:43;9.57;;;5.65;;
75154;SDS011;63735;44.730;37.818;2023-05-07T05:02:10;8.50;;;7.68;;
75154;SDS011;63735;44.730;37.818;2023-05-07T05:04:36;7.97;;;6.05;;
75154;SDS011;63735;44.730;37.818;2023-05-07T05:07:03;9.00;;;5.57;;
75154;SDS011;63735;44.730;37.818;2023-05-07T05:09:30;12.52;;;5.35;;
75154;SDS011;63735;44.730;37.818;2023-05-07T05:11:56;9.45;;;5.93;;
75154;SDS011;63735;44.730;37.818;2023-05-07T05:14:22;7.60;;;4.80;;
75154;SDS011;63735;44.730;37.818;2023-05-07T05:16:50;10.45;;;5.07;;
75154;SDS011;63735;44.730;37.818;2023-05-07T05:19:16;11.05;;;4.85;;
75154;SDS011;63735;44.730;37.818;2023-05-07T05:21:43;7.40;;;4.78;;
75154;SDS011;63735;44.730;37.818;2023-05-07T05:24:11;9.95;;;4.75;;
75154;SDS011;63735;44.730;37.818;2023-05-07T05:26:38;5.10;;;4.60;;
75154;SDS011;63735;44.730;37.818;2023-05-07T05:29:04;5.60;;;4.85;;
75154;SDS011;63735;44.730;37.818;2023-05-07T05:31:31;5.88;;;4.13;;
75154;SDS011;63735;44.730;37.818;2023-05-07T05:33:57;8.70;;;4.88;;
75154;SDS011;63735;44.730;37.818;2023-05-07T05:36:24;5.53;;;3.95;;
75154;SDS011;63735;44.730;37.818;2023-05-07T05:38:53;12.27;;;4.53;;
75154;SDS011;63735;44.730;37.818;2023-05-07T05:43:47;6.03;;;3.78;;
75154;SDS011;63735;44.730;37.818;2023-05-07T05:46:13;7.35;;;5.65;;
75154;SDS011;63735;44.730;37.818;2023-05-07T05:48:40;5.78;;;3.75;;
75154;SDS011;63735;44.730;37.818;2023-05-07T05:51:07;5.78;;;4.07;;
75154;SDS011;63735;44.730;37.818;2023-05-07T05:53:33;8.38;;;3.88;;
75154;SDS011;63735;44.730;37.818;2023-05-07T05:55:58;6.63;;;3.63;;
75154;SDS011;63735;44.730;37.818;2023-05-07T05:58:25;5.00;;;2.83;;
75154;SDS011;63735;44.730;37.818;2023-05-07T06:00:56;2.10;;;1.85;;
75154;SDS011;63735;44.730;37.818;2023-05-07T06:03:25;3.45;;;2.65;;
75154;SDS011;63735;44.730;37.818;2023-05-07T06:05:53;7.78;;;2.30;;
75154;SDS011;63735;44.730;37.818;2023-05-07T06:08:20;12.02;;;2.42;;
75154;SDS011;63735;44.730;37.818;2023-05-07T06:10:46;3.83;;;2.55;;
75154;SDS011;63735;44.730;37.818;2023-05-07T06:13:13;3.65;;;2.20;;
75154;SDS011;63735;44.730;37.818;2023-05-07T06:15:40;4.80;;;2.65;;
75154;SDS011;63735;44.730;37.818;2023-05-07T06:18:09;4.50;;;2.55;;
75154;SDS011;63735;44.730;37.818;2023-05-07T06:20:35;7.18;;;2.65;;
75154;SDS011;63735;44.730;37.818;2023-05-07T06:23:03;3.53;;;2.30;;
75154;SDS011;63735;44.730;37.818;2023-05-07T06:25:32;3.60;;;2.50;;
75154;SDS011;63735;44.730;37.818;2023-05-07T06:27:57;3.15;;;2.33;;
75154;SDS011;63735;44.730;37.818;2023-05-07T06:30:24;4.45;;;2.17;;
75154;SDS011;63735;44.730;37.818;2023-05-07T06:32:53;5.90;;;2.42;;
75154;SDS011;63735;44.730;37.818;2023-05-07T06:35:19;6.88;;;2.45;;
75154;SDS011;63735;44.730;37.818;2023-05-07T06:37:46;4.78;;;3.20;;
75154;SDS011;63735;44.730;37.818;2023-05-07T06:40:17;5.20;;;4.10;;
75154;SDS011;63735;44.730;37.818;2023-05-07T06:42:44;6.70;;;4.13;;
75154;SDS011;63735;44.730;37.818;2023-05-07T06:45:28;6.75;;;3.60;;
75154;SDS011;63735;44.730;37.818;2023-05-07T06:50:23;8.10;;;3.47;;
75154;SDS011;63735;44.730;37.818;2023-05-07T06:52:53;7.70;;;3.28;;
75154;SDS011;63735;44.730;37.818;2023-05-07T06:55:19;4.85;;;2.85;;
75154;SDS011;63735;44.730;37.818;2023-05-07T06:57:45;5.78;;;2.88;;
75154;SDS011;63735;44.730;37.818;2023-05-07T07:00:11;8.07;;;2.53;;
75154;SDS011;63735;44.730;37.818;2023-05-07T07:02:45;4.82;;;2.63;;
75154;SDS011;63735;44.730;37.818;2023-05-07T07:05:14;3.33;;;1.90;;
75154;SDS011;63735;44.730;37.818;2023-05-07T07:07:40;4.90;;;2.42;;
75154;SDS011;63735;44.730;37.818;2023-05-07T07:10:07;2.15;;;1.95;;
75154;SDS011;63735;44.730;37.818;2023-05-07T07:12:34;5.68;;;2.67;;
75154;SDS011;63735;44.730;37.818;2023-05-07T07:15:00;4.90;;;2.47;;
75154;SDS011;63735;44.730;37.818;2023-05-07T07:17:27;5.68;;;2.10;;
75154;SDS011;63735;44.730;37.818;2023-05-07T07:19:54;7.20;;;2.38;;
75154;SDS011;63735;44.730;37.818;2023-05-07T07:22:20;3.63;;;1.83;;
75154;SDS011;63735;44.730;37.818;2023-05-07T07:24:46;3.28;;;2.05;;
75154;SDS011;63735;44.730;37.818;2023-05-07T07:27:15;7.78;;;2.38;;
75154;SDS011;63735;44.730;37.818;2023-05-07T07:29:41;2.67;;;1.90;;
75154;SDS011;63735;44.730;37.818;2023-05-07T07:32:07;3.33;;;2.13;;
75154;SDS011;63735;44.730;37.818;2023-05-07T07:34:34;4.72;;;2.08;;
75154;SDS011;63735;44.730;37.818;2023-05-07T07:37:01;4.10;;;1.70;;
75154;SDS011;63735;44.730;37.818;2023-05-07T07:39:31;5.68;;;2.25;;
75154;SDS011;63735;44.730;37.818;2023-05-07T07:41:58;4.00;;;2.20;;
75154;SDS011;63735;44.730;37.818;2023-05-07T07:44:28;3.78;;;2.15;;
75154;SDS011;63735;44.730;37.818;2023-05-07T07:46:58;2.17;;;1.83;;
75154;SDS011;63735;44.730;37.818;2023-05-07T07:49:26;4.47;;;1.77;;
75154;SDS011;63735;44.730;37.818;2023-05-07T07:51:53;3.40;;;2.00;;
75154;SDS011;63735;44.730;37.818;2023-05-07T07:54:20;11.18;;;2.67;;
75154;SDS011;63735;44.730;37.818;2023-05-07T07:56:46;6.25;;;2.10;;
75154;SDS011;63735;44.730;37.818;2023-05-07T07:59:13;8.98;;;2.00;;
75154;SDS011;63735;44.730;37.818;2023-05-07T08:01:43;5.13;;;2.72;;
75154;SDS011;63735;44.730;37.818;2023-05-07T08:04:09;6.13;;;2.10;;
75154;SDS011;63735;44.730;37.818;2023-05-07T08:06:38;5.38;;;2.28;;
75154;SDS011;63735;44.730;37.818;2023-05-07T08:09:05;6.90;;;2.80;;
75154;SDS011;63735;44.730;37.818;2023-05-07T08:11:32;3.35;;;2.47;;
75154;SDS011;63735;44.730;37.818;2023-05-07T08:13:58;8.18;;;2.97;;
75154;SDS011;63735;44.730;37.818;2023-05-07T08:16:24;8.65;;;2.40;;
75154;SDS011;63735;44.730;37.818;2023-05-07T08:18:51;5.88;;;2.60;;
75154;SDS011;63735;44.730;37.818;2023-05-07T08:21:17;6.43;;;2.25;;
75154;SDS011;63735;44.730;37.818;2023-05-07T08:23:43;7.97;;;3.00;;
75154;SDS011;63735;44.730;37.818;2023-05-07T08:26:10;4.82;;;2.50;;
75154;SDS011;63735;44.730;37.818;2023-05-07T08:28:36;7.80;;;2.33;;
75154;SDS011;63735;44.730;37.818;2023-05-07T08:31:02;5.90;;;2.08;;
75154;SDS011;63735;44.730;37.818;2023-05-07T08:33:32;5.43;;;2.22;;
75154;SDS011;63735;44.730;37.818;2023-05-07T08:35:58;4.22;;;2.30;;
75154;SDS011;63735;44.730;37.818;2023-05-07T08:38:24;5.63;;;2.08;;
75154;SDS011;63735;44.730;37.818;2023-05-07T08:40:52;5.20;;;3.05;;
75154;SDS011;63735;44.730;37.818;2023-05-07T08:43:20;4.38;;;2.50;;
75154;SDS011;63735;44.730;37.818;2023-05-07T08:45:53;8.02;;;3.35;;
75154;SDS011;63735;44.730;37.818;2023-05-07T08:48:25;3.75;;;2.50;;
75154;SDS011;63735;44.730;37.818;2023-05-07T08:53:26;6.90;;;2.50;;
75154;SDS011;63735;44.730;37.818;2023-05-07T08:55:53;10.82;;;2.50;;
75154;SDS011;63735;44.730;37.818;2023-05-07T08:58:19;9.63;;;1.80;;
75154;SDS011;63735;44.730;37.818;2023-05-07T09:00:45;7.75;;;2.80;;
75154;SDS011;63735;44.730;37.818;2023-05-07T09:03:12;4.63;;;2.70;;
75154;SDS011;63735;44.730;37.818;2023-05-07T09:05:43;7.15;;;3.10;;
75154;SDS011;63735;44.730;37.818;2023-05-07T09:08:14;5.05;;;2.90;;
75154;SDS011;63735;44.730;37.818;2023-05-07T09:10:40;6.22;;;3.13;;
75154;SDS011;63735;44.730;37.818;2023-05-07T09:13:07;7.82;;;3.20;;
75154;SDS011;63735;44.730;37.818;2023-05-07T09:15:34;6.03;;;2.97;;
75154;SDS011;63735;44.730;37.818;2023-05-07T09:18:02;6.95;;;3.10;;
75154;SDS011;63735;44.730;37.818;2023-05-07T09:20:32;6.78;;;3.13;;
75154;SDS011;63735;44.730;37.818;2023-05-07T09:22:59;6.88;;;2.72;;
75154;SDS011;63735;44.730;37.818;2023-05-07T09:25:31;5.57;;;2.80;;
75154;SDS011;63735;44.730;37.818;2023-05-07T09:28:03;5.05;;;2.83;;
75154;SDS011;63735;44.730;37.818;2023-05-07T09:30:33;6.55;;;3.38;;
75154;SDS011;63735;44.730;37.818;2023-05-07T09:33:03;6.50;;;3.38;;
75154;SDS011;63735;44.730;37.818;2023-05-07T09:35:32;6.78;;;3.28;;
75154;SDS011;63735;44.730;37.818;2023-05-07T09:38:04;4.85;;;3.22;;
75154;SDS011;63735;44.730;37.818;2023-05-07T09:40:33;10.10;;;3.83;;
75154;SDS011;63735;44.730;37.818;2023-05-07T09:43:11;6.97;;;3.25;;
75154;SDS011;63735;44.730;37.818;2023-05-07T09:45:45;4.68;;;3.17;;
75154;SDS011;63735;44.730;37.818;2023-05-07T09:48:17;7.00;;;3.15;;
75154;SDS011;63735;44.730;37.818;2023-05-07T09:50:48;5.90;;;3.95;;
75154;SDS011;63735;44.730;37.818;2023-05-07T09:53:20;6.40;;;3.67;;
75154;SDS011;63735;44.730;37.818;2023-05-07T09:55:48;10.35;;;4.72;;
75154;SDS011;63735;44.730;37.818;2023-05-07T09:58:14;14.05;;;4.03;;
75154;SDS011;63735;44.730;37.818;2023-05-07T10:00:43;15.20;;;4.25;;
75154;SDS011;63735;44.730;37.818;2023-05-07T10:03:13;14.68;;;4.32;;
75154;SDS011;63735;44.730;37.818;2023-05-07T10:05:54;8.13;;;3.83;;
75154;SDS011;63735;44.730;37.818;2023-05-07T10:08:21;7.00;;;3.95;;
75154;SDS011;63735;44.730;37.818;2023-05-07T10:10:51;8.65;;;3.38;;
75154;SDS011;63735;44.730;37.818;2023-05-07T10:13:21;5.60;;;3.40;;
75154;SDS011;63735;44.730;37.818;2023-05-07T10:15:50;7.55;;;3.83;;
75154;SDS011;63735;44.730;37.818;2023-05-07T10:18:19;11.18;;;3.58;;
75154;SDS011;63735;44.730;37.818;2023-05-07T10:20:51;8.00;;;4.20;;
75154;SDS011;63735;44.730;37.818;2023-05-07T10:23:22;7.63;;;3.78;;
75154;SDS011;63735;44.730;37.818;2023-05-07T10:25:53;9.90;;;3.85;;
75154;SDS011;63735;44.730;37.818;2023-05-07T10:28:22;7.50;;;3.60;;
75154;SDS011;63735;44.730;37.818;2023-05-07T10:31:02;11.52;;;3.70;;
75154;SDS011;63735;44.730;37.818;2023-05-07T10:33:49;5.15;;;3.92;;
75154;SDS011;63735;44.730;37.818;2023-05-07T10:36:21;5.22;;;3.92;;
75154;SDS011;63735;44.730;37.818;2023-05-07T10:38:50;12.50;;;5.22;;
75154;SDS011;63735;44.730;37.818;2023-05-07T10:41:17;8.48;;;4.38;;
75154;SDS011;63735;44.730;37.818;2023-05-07T10:43:45;5.53;;;3.70;;
75154;SDS011;63735;44.730;37.818;2023-05-07T10:46:19;6.72;;;4.03;;
75154;SDS011;63735;44.730;37.818;2023-05-07T10:52:11;10.32;;;3.97;;
75154;SDS011;63735;44.730;37.818;2023-05-07T10:57:47;5.78;;;3.58;;
75154;SDS011;63735;44.730;37.818;2023-05-07T11:05:29;7.97;;;4.53;;
75154;SDS011;63735;44.730;37.818;2023-05-07T11:08:12;9.95;;;4.30;;
75154;SDS011;63735;44.730;37.818;2023-05-07T11:10:59;12.57;;;4.00;;
75154;SDS011;63735;44.730;37.818;2023-05-07T11:16:32;10.35;;;4.03;;
75154;SDS011;63735;44.730;37.818;2023-05-07T11:19:11;6.88;;;4.20;;
75154;SDS011;63735;44.730;37.818;2023-05-07T11:21:42;10.63;;;4.57;;
75154;SDS011;63735;44.730;37.818;2023-05-07T11:24:41;11.07;;;4.47;;
75154;SDS011;63735;44.730;37.818;2023-05-07T11:27:09;8.63;;;4.13;;
75154;SDS011;63735;44.730;37.818;2023-05-07T11:29:35;13.15;;;4.50;;
75154;SDS011;63735;44.730;37.818;2023-05-07T11:32:08;10.93;;;5.07;;
75154;SDS011;63735;44.730;37.818;2023-05-07T11:34:41;12.38;;;4.65;;
75154;SDS011;63735;44.730;37.818;2023-05-07T11:37:08;7.65;;;4.38;;
75154;SDS011;63735;44.730;37.818;2023-05-07T11:40:04;11.00;;;6.28;;
75154;SDS011;63735;44.730;37.818;2023-05-07T11:42:36;9.23;;;4.35;;
75154;SDS011;63735;44.730;37.818;2023-05-07T11:45:03;11.68;;;4.55;;
75154;SDS011;63735;44.730;37.818;2023-05-07T11:49:57;14.93;;;5.28;;
75154;SDS011;63735;44.730;37.818;2023-05-07T11:52:28;8.65;;;4.78;;
75154;SDS011;63735;44.730;37.818;2023-05-07T11:54:55;9.15;;;5.45;;
75154;SDS011;63735;44.730;37.818;2023-05-07T11:57:26;11.68;;;4.63;;
75154;SDS011;63735;44.730;37.818;2023-05-07T11:59:58;7.68;;;4.50;;
75154;SDS011;63735;44.730;37.818;2023-05-07T12:02:37;6.25;;;4.60;;
75154;SDS011;63735;44.730;37.818;2023-05-07T12:05:04;9.77;;;4.93;;
75154;SDS011;63735;44.730;37.818;2023-05-07T12:07:30;8.93;;;4.68;;
75154;SDS011;63735;44.730;37.818;2023-05-07T12:09:58;7.03;;;4.32;;
75154;SDS011;63735;44.730;37.818;2023-05-07T12:12:24;7.40;;;4.30;;
75154;SDS011;63735;44.730;37.818;2023-05-07T12:14:52;8.85;;;4.55;;
75154;SDS011;63735;44.730;37.818;2023-05-07T12:17:18;9.95;;;4.43;;
75154;SDS011;63735;44.730;37.818;2023-05-07T12:19:44;7.85;;;4.20;;
75154;SDS011;63735;44.730;37.818;2023-05-07T12:22:11;7.60;;;4.00;;
75154;SDS011;63735;44.730;37.818;2023-05-07T12:24:47;7.03;;;4.45;;
75154;SDS011;63735;44.730;37.818;2023-05-07T12:27:23;11.48;;;4.93;;
75154;SDS011;63735;44.730;37.818;2023-05-07T12:29:49;6.63;;;4.93;;
75154;SDS011;63735;44.730;37.818;2023-05-07T12:32:16;9.77;;;3.97;;
75154;SDS011;63735;44.730;37.818;2023-05-07T12:34:43;7.10;;;4.18;;
75154;SDS011;63735;44.730;37.818;2023-05-07T12:37:10;7.72;;;4.57;;
75154;SDS011;63735;44.730;37.818;2023-05-07T12:39:38;11.05;;;4.45;;
75154;SDS011;63735;44.730;37.818;2023-05-07T12:42:04;9.50;;;5.13;;
75154;SDS011;63735;44.730;37.818;2023-05-07T12:44:31;7.05;;;3.60;;
75154;SDS011;63735;44.730;37.818;2023-05-07T12:46:58;7.57;;;4.65;;
75154;SDS011;63735;44.730;37.818;2023-05-07T12:49:27;9.02;;;4.30;;
75154;SDS011;63735;44.730;37.818;2023-05-07T12:51:53;7.70;;;3.55;;
75154;SDS011;63735;44.730;37.818;2023-05-07T12:54:29;6.13;;;3.88;;
75154;SDS011;63735;44.730;37.818;2023-05-07T13:02:05;15.43;;;3.97;;
75154;SDS011;63735;44.730;37.818;2023-05-07T13:04:34;7.10;;;3.97;;
75154;SDS011;63735;44.730;37.818;2023-05-07T13:07:00;9.13;;;3.97;;
75154;SDS011;63735;44.730;37.818;2023-05-07T13:09:27;8.63;;;3.30;;
75154;SDS011;63735;44.730;37.818;2023-05-07T13:11:54;11.88;;;4.07;;
75154;SDS011;63735;44.730;37.818;2023-05-07T13:14:20;8.43;;;3.28;;
75154;SDS011;63735;44.730;37.818;2023-05-07T13:16:47;5.80;;;3.50;;
75154;SDS011;63735;44.730;37.818;2023-05-07T13:19:13;12.32;;;4.43;;
75154;SDS011;63735;44.730;37.818;2023-05-07T13:21:39;10.63;;;4.97;;
75154;SDS011;63735;44.730;37.818;2023-05-07T13:24:05;13.68;;;5.25;;
75154;SDS011;63735;44.730;37.818;2023-05-07T13:26:31;9.60;;;4.47;;
75154;SDS011;63735;44.730;37.818;2023-05-07T13:28:57;9.32;;;4.45;;
75154;SDS011;63735;44.730;37.818;2023-05-07T13:31:24;15.43;;;5.63;;
75154;SDS011;63735;44.730;37.818;2023-05-07T13:33:50;10.40;;;5.05;;
75154;SDS011;63735;44.730;37.818;2023-05-07T13:36:16;9.00;;;5.93;;
75154;SDS011;63735;44.730;37.818;2023-05-07T13:38:42;15.20;;;6.95;;
75154;SDS011;63735;44.730;37.818;2023-05-07T13:41:07;13.85;;;5.72;;
75154;SDS011;63735;44.730;37.818;2023-05-07T13:43:34;16.40;;;5.80;;
75154;SDS011;63735;44.730;37.818;2023-05-07T13:46:00;13.77;;;6.10;;
75154;SDS011;63735;44.730;37.818;2023-05-07T13:48:26;7.97;;;5.05;;
75154;SDS011;63735;44.730;37.818;2023-05-07T13:50:53;10.27;;;4.65;;
75154;SDS011;63735;44.730;37.818;2023-05-07T13:53:19;10.13;;;4.90;;
75154;SDS011;63735;44.730;37.818;2023-05-07T13:55:45;7.45;;;4.30;;
75154;SDS011;63735;44.730;37.818;2023-05-07T13:58:11;8.32;;;4.45;;
75154;SDS011;63735;44.730;37.818;2023-05-07T14:00:37;7.55;;;4.47;;
75154;SDS011;63735;44.730;37.818;2023-05-07T14:03:04;9.68;;;5.10;;
75154;SDS011;63735;44.730;37.818;2023-05-07T14:05:30;9.98;;;4.82;;
75154;SDS011;63735;44.730;37.818;2023-05-07T14:07:57;5.85;;;4.15;;
75154;SDS011;63735;44.730;37.818;2023-05-07T14:10:23;13.55;;;4.13;;
75154;SDS011;63735;44.730;37.818;2023-05-07T14:12:49;12.38;;;4.57;;
75154;SDS011;63735;44.730;37.818;2023-05-07T14:15:15;9.52;;;4.00;;
75154;SDS011;63735;44.730;37.818;2023-05-07T14:17:44;11.45;;;4.07;;
75154;SDS011;63735;44.730;37.818;2023-05-07T14:20:11;5.13;;;3.65;;
75154;SDS011;63735;44.730;37.818;2023-05-07T14:22:37;6.70;;;4.38;;
75154;SDS011;63735;44.730;37.818;2023-05-07T14:25:03;7.70;;;3.75;;
75154;SDS011;63735;44.730;37.818;2023-05-07T14:27:30;8.50;;;4.00;;
75154;SDS011;63735;44.730;37.818;2023-05-07T14:29:55;5.70;;;3.50;;
75154;SDS011;63735;44.730;37.818;2023-05-07T14:32:21;10.25;;;3.60;;
75154;SDS011;63735;44.730;37.818;2023-05-07T14:34:47;9.45;;;3.83;;
75154;SDS011;63735;44.730;37.818;2023-05-07T14:37:14;4.68;;;3.40;;
75154;SDS011;63735;44.730;37.818;2023-05-07T14:39:40;5.60;;;3.65;;
75154;SDS011;63735;44.730;37.818;2023-05-07T14:42:06;5.60;;;4.55;;
75154;SDS011;63735;44.730;37.818;2023-05-07T14:44:36;6.18;;;3.90;;
75154;SDS011;63735;44.730;37.818;2023-05-07T14:47:02;5.72;;;4.75;;
75154;SDS011;63735;44.730;37.818;2023-05-07T14:49:28;8.93;;;4.38;;
75154;SDS011;63735;44.730;37.818;2023-05-07T14:51:56;6.50;;;3.88;;
75154;SDS011;63735;44.730;37.818;2023-05-07T14:54:24;9.52;;;4.47;;
75154;SDS011;63735;44.730;37.818;2023-05-07T14:56:50;8.55;;;4.50;;
75154;SDS011;63735;44.730;37.818;2023-05-07T14:59:16;8.30;;;3.92;;
75154;SDS011;63735;44.730;37.818;2023-05-07T15:01:49;8.27;;;4.85;;
75154;SDS011;63735;44.730;37.818;2023-05-07T15:04:14;9.85;;;4.93;;
75154;SDS011;63735;44.730;37.818;2023-05-07T15:06:41;10.27;;;5.05;;
75154;SDS011;63735;44.730;37.818;2023-05-07T15:09:07;10.57;;;5.35;;
75154;SDS011;63735;44.730;37.818;2023-05-07T15:11:34;7.35;;;4.25;;